Time;durP1;ratioP1;P1;durP2;ratioP2;P2;SDS_P1;SDS_P2;PMS_P1;PMS_P2;Temp;Humidity;BMP_temperature;BMP_pressure;BME280_temperature;BME280_humidity;BME280_pressure;Samples;Min_cycle;Max_cycle;Signal;HPM_P1;HPM_P2
2022/09/06 00:01:13;;;;;;;3.25;1.30;;;17.20;81.20;;;;;;5053135;28;20209;-76
2022/09/06 00:03:39;;;;;;;1.70;1.60;;;17.20;81.10;;;;;;5050559;28;20178;-76
2022/09/06 00:06:14;;;;;;;1.85;1.75;;;17.10;81.90;;;;;;5050575;28;20216;-76
2022/09/06 00:08:42;;;;;;;1.23;1.23;;;17.10;82.00;;;;;;5055523;28;20244;-76
2022/09/06 00:11:07;;;;;;;2.08;1.98;;;16.90;82.10;;;;;;5049535;28;20183;-76
2022/09/06 00:13:33;;;;;;;1.67;1.35;;;16.90;81.90;;;;;;5056003;28;20311;-76
2022/09/06 00:16:12;;;;;;;1.40;1.40;;;16.80;82.40;;;;;;5050632;28;20190;-76
2022/09/06 00:18:37;;;;;;;2.08;1.70;;;16.80;82.70;;;;;;5053823;28;20593;-76
2022/09/06 00:21:12;;;;;;;1.60;1.60;;;16.80;83.20;;;;;;5054158;28;20211;-76
2022/09/06 00:23:37;;;;;;;1.88;1.77;;;16.80;84.00;;;;;;5055139;28;20600;-76
2022/09/06 00:26:04;;;;;;;1.52;1.42;;;16.60;83.90;;;;;;5055006;28;20296;-76
2022/09/06 00:28:30;;;;;;;1.20;1.20;;;16.60;83.90;;;;;;5056244;28;20179;-77
2022/09/06 00:30:56;;;;;;;1.60;1.50;;;16.60;84.20;;;;;;5087411;28;20725;-75
2022/09/06 00:33:22;;;;;;;1.55;1.48;;;16.50;83.50;;;;;;5052669;28;20322;-75
2022/09/06 00:35:48;;;;;;;1.70;1.70;;;16.50;83.30;;;;;;5051010;28;20768;-75
2022/09/06 00:38:14;;;;;;;1.52;1.50;;;16.50;83.40;;;;;;5050900;28;20222;-76
2022/09/06 00:40:41;;;;;;;1.55;1.55;;;16.50;83.30;;;;;;5058444;28;20734;-76
2022/09/06 00:43:07;;;;;;;1.65;1.60;;;16.50;83.30;;;;;;5048151;28;20772;-75
2022/09/06 00:45:33;;;;;;;1.83;1.83;;;16.50;83.50;;;;;;5049534;28;20290;-76
2022/09/06 00:48:00;;;;;;;2.08;1.38;;;16.50;83.30;;;;;;5050851;28;20203;-76
2022/09/06 00:50:27;;;;;;;2.30;2.08;;;16.40;84.10;;;;;;5052253;28;20176;-76
2022/09/06 00:52:53;;;;;;;1.55;1.55;;;16.50;84.20;;;;;;5055135;28;20210;-75
2022/09/06 00:55:20;;;;;;;1.60;1.60;;;16.50;84.50;;;;;;5053427;28;20222;-76
2022/09/06 00:57:50;;;;;;;1.92;1.83;;;16.50;84.10;;;;;;5054657;28;20554;-76
2022/09/06 01:00:17;;;;;;;1.70;1.60;;;16.50;84.30;;;;;;5055534;28;20210;-76
2022/09/06 01:02:43;;;;;;;1.98;1.92;;;16.50;84.70;;;;;;5054950;28;20186;-76
2022/09/06 01:05:10;;;;;;;4.15;1.23;;;16.50;84.70;;;;;;5053410;28;20214;-76
2022/09/06 01:08:07;;;;;;;1.83;1.73;;;16.40;83.90;;;;;;5056034;28;20604;-76
2022/09/06 01:10:52;;;;;;;1.63;1.63;;;16.40;84.30;;;;;;5048792;28;20203;-76
2022/09/06 01:13:27;;;;;;;3.83;1.65;;;16.40;83.90;;;;;;5052994;28;20274;-76
2022/09/06 01:16:10;;;;;;;1.65;1.60;;;16.40;84.10;;;;;;5054204;28;20588;-76
2022/09/06 01:19:07;;;;;;;1.58;1.58;;;16.40;84.20;;;;;;5054869;28;20254;-76
2022/09/06 01:21:54;;;;;;;1.50;1.50;;;16.30;84.30;;;;;;5049444;28;20207;-76
2022/09/06 01:24:41;;;;;;;1.52;1.48;;;16.20;83.00;;;;;;5048206;28;20203;-76
2022/09/06 01:27:31;;;;;;;1.30;1.30;;;16.20;84.30;;;;;;5065162;28;20694;-76
2022/09/06 01:30:00;;;;;;;2.08;1.63;;;16.10;83.90;;;;;;5050210;28;20258;-76
2022/09/06 01:32:46;;;;;;;1.75;1.60;;;16.10;85.50;;;;;;5053354;28;20640;-75
2022/09/06 01:35:37;;;;;;;1.80;1.70;;;16.00;84.80;;;;;;5051302;28;20960;-76
2022/09/06 01:38:04;;;;;;;1.77;1.70;;;16.00;85.30;;;;;;5010979;28;20231;-75
2022/09/06 01:40:34;;;;;;;2.33;2.22;;;16.00;86.00;;;;;;5013725;28;20644;-76
2022/09/06 01:43:00;;;;;;;1.70;1.70;;;16.00;86.30;;;;;;5010835;28;20199;-76
2022/09/06 01:45:49;;;;;;;2.15;2.05;;;16.00;85.40;;;;;;5011209;28;20356;-76
2022/09/06 01:48:49;;;;;;;5.15;2.00;;;15.90;84.40;;;;;;5010938;28;20195;-75
2022/09/06 01:51:33;;;;;;;1.83;1.83;;;15.90;83.80;;;;;;5008772;28;20188;-76
2022/09/06 01:54:05;;;;;;;2.08;2.08;;;15.90;83.90;;;;;;5010697;28;20196;-76
2022/09/06 01:57:09;;;;;;;1.98;1.88;;;15.90;84.20;;;;;;5014626;28;20266;-76
2022/09/06 01:59:46;;;;;;;1.73;1.63;;;15.90;84.70;;;;;;5010570;28;20196;-76
2022/09/06 02:02:20;;;;;;;1.65;1.65;;;15.90;85.60;;;;;;5007747;28;20192;-75
2022/09/06 02:05:19;;;;;;;1.80;1.70;;;15.90;85.40;;;;;;5009477;28;20212;-76
2022/09/06 02:07:48;;;;;;;2.03;1.77;;;15.90;85.80;;;;;;4939545;29;20226;-76
2022/09/06 02:10:21;;;;;;;1.63;1.52;;;15.90;86.10;;;;;;4939857;28;20203;-75
2022/09/06 02:12:50;;;;;;;1.95;1.85;;;15.90;86.10;;;;;;4940441;28;20198;-76
2022/09/06 02:15:22;;;;;;;1.65;1.55;;;15.90;86.30;;;;;;4969145;28;20584;-75
2022/09/06 02:18:09;;;;;;;1.73;1.63;;;15.90;86.20;;;;;;4988944;28;20193;-76
2022/09/06 02:20:43;;;;;;;1.95;1.88;;;15.80;86.40;;;;;;4987792;28;20233;-76
2022/09/06 02:23:10;;;;;;;1.80;1.70;;;15.80;86.40;;;;;;4992762;28;20743;-76
2022/09/06 02:25:49;;;;;;;2.90;1.73;;;15.80;86.80;;;;;;4987279;28;20229;-76
2022/09/06 02:28:15;;;;;;;1.75;1.75;;;15.80;86.50;;;;;;4992793;28;20206;-77
2022/09/06 02:30:47;;;;;;;2.17;2.05;;;15.80;86.90;;;;;;4990317;28;20220;-76
2022/09/06 02:33:18;;;;;;;2.13;2.03;;;15.80;86.90;;;;;;4988060;28;20204;-76
2022/09/06 02:35:47;;;;;;;1.88;1.88;;;15.70;86.90;;;;;;4990696;28;20188;-76
2022/09/06 02:38:14;;;;;;;2.08;1.98;;;15.70;87.10;;;;;;4993473;28;20264;-76
2022/09/06 02:40:42;;;;;;;1.77;1.67;;;15.70;87.10;;;;;;4996634;28;20189;-76
2022/09/06 02:43:08;;;;;;;1.15;1.15;;;15.70;87.10;;;;;;4995408;28;20808;-76
2022/09/06 02:45:34;;;;;;;2.10;2.00;;;15.70;87.30;;;;;;5049220;28;20235;-76
2022/09/06 02:47:59;;;;;;;1.77;1.67;;;15.60;87.50;;;;;;5053286;28;20190;-75
2022/09/06 02:50:25;;;;;;;2.10;2.00;;;15.60;87.50;;;;;;5059503;28;20653;-76
2022/09/06 02:53:03;;;;;;;1.85;1.75;;;15.60;87.60;;;;;;5056211;28;20184;-76
2022/09/06 02:55:28;;;;;;;1.88;1.80;;;15.50;86.40;;;;;;5058130;28;20274;-76
2022/09/06 02:57:54;;;;;;;1.60;1.50;;;15.50;86.80;;;;;;5053675;28;20724;-76
2022/09/06 03:00:19;;;;;;;1.30;1.30;;;15.50;86.70;;;;;;5058340;28;20188;-76
2022/09/06 03:02:45;;;;;;;1.67;1.65;;;15.40;86.80;;;;;;5054836;28;20183;-76
2022/09/06 03:05:11;;;;;;;2.38;1.50;;;15.40;86.80;;;;;;5057359;28;20284;-76
2022/09/06 03:07:36;;;;;;;1.65;1.63;;;15.40;86.40;;;;;;5055410;28;20253;-76
2022/09/06 03:10:02;;;;;;;1.75;1.65;;;15.40;85.80;;;;;;5054756;28;20191;-74
2022/09/06 03:12:28;;;;;;;1.75;1.70;;;15.30;86.00;;;;;;5056261;28;20190;-77
2022/09/06 03:14:54;;;;;;;2.13;1.90;;;15.40;86.70;;;;;;5060876;28;20187;-76
2022/09/06 03:17:19;;;;;;;1.50;1.50;;;15.40;87.20;;;;;;5057399;28;20190;-74
2022/09/06 03:19:45;;;;;;;1.73;1.58;;;15.40;86.90;;;;;;5054649;28;20735;-74
2022/09/06 03:22:11;;;;;;;1.98;1.88;;;15.30;86.30;;;;;;5056420;28;20652;-76
2022/09/06 03:24:37;;;;;;;2.05;1.95;;;15.30;86.10;;;;;;5053513;28;20250;-75
2022/09/06 03:27:02;;;;;;;1.67;1.60;;;15.30;85.80;;;;;;5052361;28;20183;-75
2022/09/06 03:29:28;;;;;;;1.85;1.85;;;15.20;86.10;;;;;;5053190;28;20657;-76
2022/09/06 03:31:54;;;;;;;1.50;1.50;;;15.20;87.00;;;;;;5055028;28;20175;-74
2022/09/06 03:34:19;;;;;;;1.55;1.42;;;15.20;87.00;;;;;;5059801;28;20294;-75
2022/09/06 03:36:45;;;;;;;1.92;1.80;;;15.30;87.60;;;;;;5053870;28;20245;-74
2022/09/06 03:39:10;;;;;;;1.50;1.50;;;15.30;87.50;;;;;;5055847;28;20184;-76
2022/09/06 03:41:37;;;;;;;1.60;1.60;;;15.20;87.10;;;;;;5052021;28;20191;-76
2022/09/06 03:44:03;;;;;;;1.27;1.27;;;15.20;86.70;;;;;;5050815;28;20287;-76
2022/09/06 03:46:29;;;;;;;1.58;1.58;;;15.20;86.30;;;;;;5050876;28;20294;-76
2022/09/06 03:48:56;;;;;;;1.95;1.85;;;15.10;86.50;;;;;;5051914;28;20265;-76
2022/09/06 03:51:22;;;;;;;1.42;1.42;;;15.10;86.60;;;;;;5049708;28;20171;-76
2022/09/06 03:53:48;;;;;;;1.90;1.80;;;15.10;86.80;;;;;;5054657;28;20569;-76
2022/09/06 03:56:13;;;;;;;2.00;1.90;;;15.10;87.60;;;;;;5054629;28;20189;-76
2022/09/06 03:58:39;;;;;;;2.15;2.05;;;15.10;88.00;;;;;;5057161;28;20179;-76
2022/09/06 04:01:09;;;;;;;2.00;1.98;;;15.20;88.20;;;;;;5054676;28;20180;-76
2022/09/06 04:03:36;;;;;;;2.30;2.20;;;15.10;87.90;;;;;;5058067;28;20657;-76
2022/09/06 04:06:03;;;;;;;2.50;2.30;;;15.10;88.30;;;;;;5055200;28;20211;-76
2022/09/06 04:08:29;;;;;;;2.35;2.25;;;15.10;88.40;;;;;;5056809;28;20184;-77
2022/09/06 04:10:57;;;;;;;1.90;1.80;;;15.10;88.50;;;;;;5058339;28;20184;-76
2022/09/06 04:13:23;;;;;;;2.35;2.25;;;15.10;88.60;;;;;;5053667;28;20213;-74
2022/09/06 04:15:49;;;;;;;2.40;2.30;;;15.10;88.60;;;;;;5061764;28;20210;-75
2022/09/06 04:18:16;;;;;;;2.28;2.10;;;15.00;88.60;;;;;;5053622;28;20187;-75
2022/09/06 04:20:42;;;;;;;2.15;2.08;;;15.00;88.70;;;;;;5057137;28;20676;-75
2022/09/06 04:23:08;;;;;;;2.25;2.15;;;15.00;88.50;;;;;;5055634;28;20217;-75
2022/09/06 04:25:33;;;;;;;2.25;2.15;;;15.00;88.60;;;;;;5056868;28;20249;-75
2022/09/06 04:27:59;;;;;;;1.80;1.73;;;15.00;88.50;;;;;;5051159;28;20184;-75
2022/09/06 04:30:25;;;;;;;2.10;2.00;;;15.00;88.90;;;;;;5055866;28;20216;-75
2022/09/06 04:32:50;;;;;;;1.63;1.63;;;15.00;88.80;;;;;;5051173;28;20384;-75
2022/09/06 04:35:16;;;;;;;2.47;2.28;;;15.00;88.40;;;;;;5055591;28;20215;-75
2022/09/06 04:37:42;;;;;;;1.73;1.70;;;15.00;88.00;;;;;;5052812;28;20643;-75
2022/09/06 04:40:08;;;;;;;3.33;1.77;;;15.00;87.90;;;;;;5051388;28;20183;-75
2022/09/06 04:42:34;;;;;;;1.95;1.85;;;15.00;87.90;;;;;;5051915;28;20230;-75
2022/09/06 04:44:59;;;;;;;2.13;1.90;;;15.00;87.70;;;;;;5049953;28;20220;-75
2022/09/06 04:47:26;;;;;;;2.08;1.98;;;15.00;87.80;;;;;;5057384;28;20665;-76
2022/09/06 04:49:52;;;;;;;2.22;2.05;;;15.00;87.30;;;;;;5050794;28;20211;-75
2022/09/06 04:52:18;;;;;;;1.88;1.88;;;15.10;88.40;;;;;;5048772;28;20236;-76
2022/09/06 04:54:44;;;;;;;1.90;1.80;;;15.10;88.30;;;;;;5050672;28;20211;-75
2022/09/06 04:57:10;;;;;;;2.33;1.73;;;15.10;88.10;;;;;;5053311;28;20178;-75
2022/09/06 04:59:35;;;;;;;3.90;2.05;;;15.10;87.90;;;;;;5053948;28;20179;-75
2022/09/06 05:02:01;;;;;;;1.50;1.50;;;15.20;87.80;;;;;;5054413;28;20175;-75
2022/09/06 05:04:27;;;;;;;2.15;2.00;;;15.20;87.90;;;;;;5052929;28;20183;-75
2022/09/06 05:07:03;;;;;;;2.47;2.33;;;15.20;87.90;;;;;;5058337;28;20174;-75
2022/09/06 05:09:30;;;;;;;1.77;1.77;;;15.20;87.00;;;;;;5056805;28;20573;-75
2022/09/06 05:11:56;;;;;;;1.80;1.70;;;15.30;87.60;;;;;;5057073;28;20175;-75
2022/09/06 05:14:22;;;;;;;1.80;1.80;;;15.30;87.70;;;;;;5056521;28;20175;-75
2022/09/06 05:16:48;;;;;;;2.47;2.38;;;15.30;87.50;;;;;;5052439;28;20206;-76
2022/09/06 05:19:15;;;;;;;1.88;1.73;;;15.30;87.90;;;;;;5053309;28;20179;-75
2022/09/06 05:21:41;;;;;;;2.10;2.00;;;15.40;87.80;;;;;;5054314;28;20183;-75
2022/09/06 05:24:06;;;;;;;1.92;1.92;;;15.40;87.70;;;;;;5053027;28;20260;-76
2022/09/06 05:26:32;;;;;;;3.05;2.17;;;15.50;87.30;;;;;;5050426;28;20223;-77
2022/09/06 05:28:58;;;;;;;1.55;1.50;;;15.50;87.40;;;;;;5056143;28;20187;-74
2022/09/06 05:31:28;;;;;;;3.03;2.08;;;15.50;87.80;;;;;;5050822;28;20180;-75
2022/09/06 05:33:56;;;;;;;2.00;1.90;;;15.60;87.60;;;;;;5051558;28;20240;-76
2022/09/06 05:36:22;;;;;;;2.55;2.35;;;15.70;87.60;;;;;;5050900;28;20199;-76
2022/09/06 05:38:52;;;;;;;2.63;2.47;;;15.70;87.60;;;;;;5052622;28;20590;-76
2022/09/06 05:41:18;;;;;;;2.58;2.47;;;15.70;87.60;;;;;;5056576;28;20191;-76
2022/09/06 05:43:44;;;;;;;2.20;2.00;;;15.80;87.80;;;;;;5054195;28;20700;-76
2022/09/06 05:46:10;;;;;;;2.33;2.33;;;15.80;87.40;;;;;;5052999;28;20210;-77
2022/09/06 05:48:36;;;;;;;2.45;2.28;;;15.90;87.30;;;;;;5053317;28;20182;-74
2022/09/06 05:51:04;;;;;;;2.30;2.20;;;15.90;87.30;;;;;;5054587;28;20190;-77
2022/09/06 05:53:42;;;;;;;2.03;1.92;;;16.00;87.10;;;;;;5054711;28;20183;-75
2022/09/06 05:56:09;;;;;;;2.15;2.15;;;16.00;86.50;;;;;;5052264;28;20190;-75
2022/09/06 05:58:35;;;;;;;2.20;2.10;;;16.00;87.00;;;;;;5051283;28;20611;-75
2022/09/06 06:01:20;;;;;;;2.20;2.05;;;16.10;87.20;;;;;;5051551;28;20206;-75
2022/09/06 06:03:57;;;;;;;2.55;1.98;;;16.20;86.40;;;;;;5052211;28;20250;-75
2022/09/06 06:06:25;;;;;;;2.38;2.28;;;16.20;86.50;;;;;;5052536;28;20222;-75
2022/09/06 06:08:51;;;;;;;2.15;2.15;;;16.30;86.90;;;;;;5056056;28;20939;-75
2022/09/06 06:11:17;;;;;;;3.55;2.17;;;16.40;87.00;;;;;;5058677;28;20186;-76
2022/09/06 06:13:43;;;;;;;2.42;2.25;;;16.40;86.90;;;;;;5054063;28;20189;-77
2022/09/06 06:16:11;;;;;;;2.20;2.10;;;16.50;86.70;;;;;;5057311;28;20188;-76
2022/09/06 06:18:38;;;;;;;2.47;2.38;;;16.50;86.40;;;;;;5054070;28;20176;-76
2022/09/06 06:21:11;;;;;;;3.55;2.95;;;16.60;86.70;;;;;;5054469;28;20315;-76
2022/09/06 06:23:38;;;;;;;3.05;2.75;;;16.70;86.20;;;;;;5053737;28;20176;-76
2022/09/06 06:26:04;;;;;;;3.42;3.25;;;16.70;86.40;;;;;;5054029;28;20734;-76
2022/09/06 06:28:31;;;;;;;2.95;2.85;;;16.70;86.20;;;;;;5058311;28;20933;-76
2022/09/06 06:30:56;;;;;;;2.40;2.30;;;16.80;86.10;;;;;;5055960;28;20195;-76
2022/09/06 06:33:22;;;;;;;2.63;2.53;;;16.80;86.10;;;;;;5051277;28;20261;-76
2022/09/06 06:36:03;;;;;;;2.42;2.33;;;16.80;86.10;;;;;;5059089;28;20190;-76
2022/09/06 06:38:40;;;;;;;3.30;3.00;;;16.90;85.20;;;;;;5054868;28;20184;-76
2022/09/06 06:41:07;;;;;;;3.08;2.97;;;16.90;85.20;;;;;;5058270;28;20681;-76
2022/09/06 06:43:36;;;;;;;3.45;3.25;;;17.00;85.90;;;;;;5059541;28;20194;-76
2022/09/06 06:46:06;;;;;;;3.05;2.92;;;17.10;85.60;;;;;;5052482;28;20781;-76
2022/09/06 06:48:31;;;;;;;3.35;3.17;;;17.10;85.20;;;;;;5054386;28;20649;-76
2022/09/06 06:50:57;;;;;;;3.63;3.47;;;17.20;85.30;;;;;;5055522;28;20210;-76
2022/09/06 06:53:23;;;;;;;2.88;2.78;;;17.20;85.10;;;;;;5052169;28;20193;-76
2022/09/06 06:55:49;;;;;;;2.80;2.70;;;17.20;85.10;;;;;;5057369;28;20225;-74
2022/09/06 06:58:16;;;;;;;3.38;3.17;;;17.30;85.10;;;;;;5059882;28;20210;-75
2022/09/06 07:00:42;;;;;;;4.00;3.47;;;17.30;85.20;;;;;;5056580;28;20179;-75
2022/09/06 07:03:08;;;;;;;2.90;2.70;;;17.30;85.10;;;;;;5058881;28;20203;-75
2022/09/06 07:05:35;;;;;;;3.00;2.83;;;17.40;85.00;;;;;;5056247;28;20242;-75
2022/09/06 07:08:00;;;;;;;2.95;2.80;;;17.50;84.90;;;;;;5054095;28;20180;-74
2022/09/06 07:10:26;;;;;;;2.55;2.45;;;17.50;84.90;;;;;;5057772;28;20249;-75
2022/09/06 07:12:52;;;;;;;2.70;2.60;;;17.60;84.90;;;;;;5056613;28;20202;-75
2022/09/06 07:15:18;;;;;;;2.70;2.60;;;17.70;84.90;;;;;;5058096;28;20214;-75
2022/09/06 07:17:44;;;;;;;2.10;2.10;;;17.80;84.70;;;;;;5056349;28;20183;-75
2022/09/06 07:20:10;;;;;;;2.40;2.35;;;17.80;84.60;;;;;;5051457;28;20673;-75
2022/09/06 07:22:37;;;;;;;3.63;2.65;;;17.90;84.50;;;;;;5057430;28;20240;-75
2022/09/06 07:25:07;;;;;;;3.45;2.55;;;18.00;84.40;;;;;;5053676;28;20209;-75
2022/09/06 07:27:33;;;;;;;2.72;2.63;;;18.10;84.00;;;;;;5055670;28;20203;-76
2022/09/06 07:29:58;;;;;;;2.50;2.40;;;18.20;83.70;;;;;;5050404;28;20213;-77
2022/09/06 07:32:24;;;;;;;3.22;3.03;;;18.20;83.70;;;;;;5053583;28;20970;-76
2022/09/06 07:34:50;;;;;;;3.83;3.20;;;18.30;83.00;;;;;;5056241;28;20187;-76
2022/09/06 07:37:16;;;;;;;2.90;2.75;;;18.30;83.10;;;;;;5053409;28;20572;-76
2022/09/06 07:39:41;;;;;;;2.42;2.40;;;18.40;83.20;;;;;;5053776;28;20179;-76
2022/09/06 07:42:08;;;;;;;3.17;3.08;;;18.50;83.10;;;;;;5056322;28;20180;-76
2022/09/06 07:44:33;;;;;;;2.78;2.67;;;18.60;83.00;;;;;;5053552;28;20253;-76
2022/09/06 07:47:05;;;;;;;3.30;3.03;;;18.60;82.90;;;;;;5055168;28;20190;-76
2022/09/06 07:49:31;;;;;;;2.60;2.45;;;18.70;83.00;;;;;;5051717;28;20244;-75
2022/09/06 07:51:57;;;;;;;3.40;3.20;;;18.80;83.00;;;;;;5052952;28;20187;-76
2022/09/06 07:54:23;;;;;;;2.53;2.33;;;18.90;82.90;;;;;;5056420;28;20187;-75
2022/09/06 07:56:48;;;;;;;2.65;2.55;;;19.00;83.00;;;;;;5052708;28;20222;-75
2022/09/06 07:59:14;;;;;;;4.25;4.03;;;19.10;83.10;;;;;;5051428;28;20984;-76
2022/09/06 08:01:40;;;;;;;3.58;3.47;;;19.20;82.10;;;;;;5051584;28;20704;-77
2022/09/06 08:04:07;;;;;;;3.65;3.28;;;19.30;81.70;;;;;;5050139;28;20255;-77
2022/09/06 08:06:38;;;;;;;5.15;3.55;;;19.40;81.50;;;;;;5057566;28;20294;-77
2022/09/06 08:09:07;;;;;;;3.72;3.53;;;19.40;81.60;;;;;;5052761;28;20555;-77
2022/09/06 08:11:34;;;;;;;3.00;2.90;;;19.60;81.60;;;;;;5056017;28;20252;-76
2022/09/06 08:14:02;;;;;;;2.65;2.55;;;19.70;81.30;;;;;;5053290;28;21044;-76
2022/09/06 08:16:29;;;;;;;3.00;2.90;;;19.80;81.60;;;;;;5056787;28;20202;-77
2022/09/06 08:18:57;;;;;;;2.47;2.38;;;19.90;81.80;;;;;;5045634;28;20183;-77
2022/09/06 08:21:25;;;;;;;3.40;3.22;;;20.00;82.20;;;;;;5054099;28;20199;-76
2022/09/06 08:23:55;;;;;;;3.30;3.10;;;20.20;80.50;;;;;;5054800;28;20229;-77
2022/09/06 08:26:22;;;;;;;3.92;3.63;;;20.30;81.20;;;;;;5048974;28;20230;-76
2022/09/06 08:28:56;;;;;;;3.33;3.13;;;20.50;81.20;;;;;;5050477;28;20184;-77
2022/09/06 08:31:22;;;;;;;3.95;3.63;;;20.60;79.90;;;;;;5046937;28;20194;-77
2022/09/06 08:33:48;;;;;;;3.55;3.35;;;20.80;79.70;;;;;;5054810;28;20656;-77
2022/09/06 08:36:14;;;;;;;3.25;3.15;;;21.00;78.60;;;;;;5055791;28;20189;-76
2022/09/06 08:38:40;;;;;;;4.05;3.85;;;21.20;78.00;;;;;;5055137;28;20187;-77
2022/09/06 08:41:13;;;;;;;3.15;3.05;;;21.30;77.80;;;;;;5058319;28;20598;-75
2022/09/06 08:44:02;;;;;;;4.13;3.45;;;21.60;77.70;;;;;;5050174;28;20269;-78
2022/09/06 08:47:13;;;;;;;3.60;3.40;;;21.90;76.20;;;;;;5052311;28;20222;-75
2022/09/06 08:49:41;;;;;;;3.45;3.30;;;22.30;74.90;;;;;;5004935;28;20689;-78
2022/09/06 08:52:25;;;;;;;3.70;3.40;;;22.80;73.90;;;;;;5022735;28;20188;-77
2022/09/06 08:55:05;;;;;;;3.60;3.28;;;23.50;72.90;;;;;;5021615;28;20207;-76
2022/09/06 08:58:03;;;;;;;3.45;3.28;;;24.10;71.90;;;;;;5005199;28;20219;-76
2022/09/06 09:00:31;;;;;;;3.72;3.38;;;25.00;69.80;;;;;;4983268;28;20749;-76
2022/09/06 09:03:10;;;;;;;3.80;3.58;;;25.90;67.70;;;;;;4981894;28;20208;-76
2022/09/06 09:05:39;;;;;;;4.97;3.53;;;26.80;66.60;;;;;;4982994;28;20235;-76
2022/09/06 09:08:25;;;;;;;3.33;3.00;;;27.60;65.50;;;;;;4983653;28;20201;-76
2022/09/06 09:11:01;;;;;;;3.13;2.92;;;28.50;64.00;;;;;;4982858;28;20269;-76
2022/09/06 09:13:47;;;;;;;3.55;3.42;;;29.30;62.80;;;;;;4983032;28;20637;-76
2022/09/06 09:16:16;;;;;;;3.65;2.40;;;30.00;61.20;;;;;;4983121;28;20220;-76
2022/09/06 09:18:49;;;;;;;2.90;2.80;;;30.60;60.20;;;;;;4982698;28;20959;-76
2022/09/06 09:21:19;;;;;;;2.40;2.40;;;31.10;59.70;;;;;;4983458;28;20197;-76
2022/09/06 09:23:52;;;;;;;3.03;2.83;;;31.60;57.00;;;;;;4982898;28;20197;-76
2022/09/06 09:26:18;;;;;;;3.13;2.35;;;31.90;58.70;;;;;;4995103;28;20286;-76
2022/09/06 09:29:03;;;;;;;2.97;2.70;;;32.40;58.70;;;;;;5012121;28;20192;-76
2022/09/06 09:31:37;;;;;;;2.85;2.50;;;33.10;57.10;;;;;;5007130;28;20267;-76
2022/09/06 09:34:04;;;;;;;1.95;1.95;;;33.70;57.00;;;;;;4989082;28;20726;-76
2022/09/06 09:36:31;;;;;;;2.88;2.33;;;34.30;56.00;;;;;;5035085;28;20245;-76
2022/09/06 09:38:58;;;;;;;2.63;2.53;;;34.90;55.70;;;;;;5054659;28;20772;-76
2022/09/06 09:41:30;;;;;;;2.63;2.53;;;35.50;55.50;;;;;;5057136;28;20587;-76
2022/09/06 09:44:03;;;;;;;1.90;1.90;;;36.00;54.30;;;;;;5054982;28;20570;-76
2022/09/06 09:46:31;;;;;;;2.10;2.10;;;36.50;54.40;;;;;;5051070;28;20672;-76
2022/09/06 09:49:08;;;;;;;3.63;2.33;;;37.00;53.90;;;;;;5054495;28;20672;-77
2022/09/06 09:51:45;;;;;;;1.98;1.98;;;37.40;52.20;;;;;;5048933;28;20285;-77
2022/09/06 09:54:13;;;;;;;2.65;2.55;;;37.80;51.90;;;;;;5052161;28;20195;-76
2022/09/06 09:56:44;;;;;;;1.90;1.90;;;38.20;49.70;;;;;;5052201;28;20660;-76
2022/09/06 09:59:21;;;;;;;2.22;2.22;;;38.40;51.30;;;;;;5052144;28;20182;-76
2022/09/06 10:01:47;;;;;;;2.17;2.17;;;38.80;51.10;;;;;;5047953;28;20179;-76
2022/09/06 10:04:27;;;;;;;2.63;2.50;;;39.30;51.70;;;;;;5052961;28;20183;-76
2022/09/06 10:07:10;;;;;;;2.40;2.30;;;39.80;46.80;;;;;;5049686;28;20214;-76
2022/09/06 10:09:40;;;;;;;2.35;2.35;;;40.40;49.50;;;;;;5054636;28;20190;-76
2022/09/06 10:12:06;;;;;;;2.72;2.63;;;40.80;47.20;;;;;;5053545;28;20209;-76
2022/09/06 10:14:40;;;;;;;2.25;2.15;;;41.20;49.40;;;;;;5053015;28;20229;-76
2022/09/06 10:17:06;;;;;;;2.40;2.40;;;41.60;47.30;;;;;;5052924;28;20598;-76
2022/09/06 10:19:41;;;;;;;1.77;1.77;;;41.80;44.30;;;;;;5050530;28;20183;-77
2022/09/06 10:22:28;;;;;;;2.47;2.38;;;41.80;45.60;;;;;;5052185;28;20189;-77
2022/09/06 10:25:18;;;;;;;2.28;2.28;;;41.70;44.90;;;;;;5047501;28;20679;-78
2022/09/06 10:28:17;;;;;;;2.08;1.95;;;41.70;42.60;;;;;;5054395;28;20269;-77
2022/09/06 10:31:05;;;;;;;2.30;2.30;;;41.60;43.30;;;;;;5054776;28;20595;-77
2022/09/06 10:33:59;;;;;;;2.00;2.00;;;41.50;44.20;;;;;;5051759;28;20191;-77
2022/09/06 10:36:53;;;;;;;2.88;2.28;;;41.60;47.30;;;;;;5054534;28;20555;-78
2022/09/06 10:39:53;;;;;;;1.88;1.88;;;41.80;41.40;;;;;;5049288;28;20822;-77
2022/09/06 10:42:45;;;;;;;1.85;1.85;;;42.00;43.70;;;;;;5049547;28;20177;-77
2022/09/06 10:45:51;;;;;;;1.52;1.52;;;42.00;43.20;;;;;;5001414;28;20239;-77
2022/09/06 10:48:30;;;;;;;1.25;1.25;;;42.30;44.00;;;;;;5001863;28;20192;-77
2022/09/06 10:51:10;;;;;;;1.17;1.17;;;42.60;41.70;;;;;;5001717;28;20216;-77
2022/09/06 10:53:53;;;;;;;1.27;1.27;;;42.70;45.20;;;;;;5000643;28;20188;-77
2022/09/06 10:56:42;;;;;;;1.45;1.45;;;42.80;44.00;;;;;;5004603;28;20664;-77
2022/09/06 10:59:34;;;;;;;1.25;1.25;;;43.00;42.60;;;;;;5004423;28;20192;-78
2022/09/06 11:02:19;;;;;;;1.90;1.70;;;43.30;41.50;;;;;;5003187;28;20581;-77
2022/09/06 11:04:47;;;;;;;2.13;2.08;;;43.40;39.20;;;;;;5002379;28;20229;-77
2022/09/06 11:07:29;;;;;;;2.00;1.90;;;43.50;41.80;;;;;;5003113;28;20734;-77
2022/09/06 11:09:58;;;;;;;1.42;1.42;;;43.70;44.90;;;;;;5003254;28;20908;-77
2022/09/06 11:12:49;;;;;;;1.40;1.40;;;43.70;40.00;;;;;;5003791;28;20193;-77
2022/09/06 11:15:16;;;;;;;1.83;1.55;;;43.70;39.00;;;;;;5004636;28;20231;-77
2022/09/06 11:17:55;;;;;;;1.05;1.05;;;43.80;39.10;;;;;;5004972;28;20276;-78
2022/09/06 11:20:32;;;;;;;1.23;1.23;;;43.90;40.90;;;;;;5004937;28;20191;-78
2022/09/06 11:23:29;;;;;;;1.58;1.58;;;44.10;40.50;;;;;;5042394;28;20713;-78
2022/09/06 11:26:00;;;;;;;1.35;1.35;;;44.30;37.60;;;;;;5056343;28;20213;-78
2022/09/06 11:28:59;;;;;;;1.35;1.35;;;44.00;41.20;;;;;;5058376;28;20183;-78
2022/09/06 11:31:30;;;;;;;1.50;1.45;;;43.50;36.90;;;;;;5023224;28;20215;-78
2022/09/06 11:34:17;;;;;;;1.25;1.25;;;42.80;39.90;;;;;;5024246;28;20196;-78
2022/09/06 11:36:50;;;;;;;0.90;0.90;;;42.60;38.00;;;;;;5023724;28;20252;-77
2022/09/06 11:39:37;;;;;;;1.20;1.20;;;42.60;39.60;;;;;;5024166;28;20188;-77
2022/09/06 11:42:39;;;;;;;0.90;0.90;;;42.80;39.90;;;;;;5023536;28;20259;-77
2022/09/06 11:45:11;;;;;;;1.27;1.17;;;42.90;38.30;;;;;;4954672;28;20229;-77
2022/09/06 11:47:44;;;;;;;1.10;1.10;;;43.00;38.80;;;;;;4952086;28;20543;-77
2022/09/06 11:50:25;;;;;;;1.10;1.10;;;43.10;42.50;;;;;;4945266;28;20194;-77
2022/09/06 11:52:54;;;;;;;1.00;1.00;;;42.60;38.50;;;;;;4951381;28;20207;-77
2022/09/06 11:55:24;;;;;;;1.05;1.05;;;41.70;38.70;;;;;;4950459;28;20210;-77
2022/09/06 11:57:55;;;;;;;0.90;0.90;;;41.10;41.40;;;;;;4952942;28;20279;-77
2022/09/06 12:00:23;;;;;;;1.00;1.00;;;40.90;40.10;;;;;;4953211;28;20186;-76
2022/09/06 12:02:50;;;;;;;1.00;1.00;;;41.00;41.20;;;;;;4955255;28;20199;-77
2022/09/06 12:05:21;;;;;;;0.90;0.80;;;41.10;39.10;;;;;;4952096;28;20301;-77
2022/09/06 12:08:14;;;;;;;0.70;0.70;;;41.00;38.80;;;;;;4959299;28;20203;-77
2022/09/06 12:10:40;;;;;;;0.95;0.95;;;40.40;39.60;;;;;;4990456;28;20189;-76
2022/09/06 12:13:51;;;;;;;1.02;1.02;;;39.70;40.40;;;;;;4978265;28;20673;-77
2022/09/06 12:16:17;;;;;;;1.10;1.10;;;38.90;40.90;;;;;;4984878;28;20283;-76
2022/09/06 12:18:46;;;;;;;1.23;1.05;;;38.30;42.80;;;;;;4993203;28;20652;-76
2022/09/06 12:21:51;;;;;;;0.85;0.85;;;38.20;43.30;;;;;;5004058;28;20221;-76
2022/09/06 12:24:42;;;;;;;1.27;1.23;;;37.30;39.80;;;;;;5012391;28;20187;-76
2022/09/06 12:27:18;;;;;;;1.13;1.13;;;36.30;42.20;;;;;;5008841;28;20203;-76
2022/09/06 12:30:04;;;;;;;1.42;0.70;;;35.80;44.10;;;;;;5011700;28;20281;-76
2022/09/06 12:32:40;;;;;;;0.90;0.90;;;35.00;45.00;;;;;;5014533;28;20726;-76
2022/09/06 12:35:18;;;;;;;0.93;0.93;;;34.60;46.70;;;;;;5012167;28;20696;-76
2022/09/06 12:38:03;;;;;;;1.10;1.10;;;34.30;47.20;;;;;;5016079;28;20594;-76
2022/09/06 12:40:37;;;;;;;0.98;0.98;;;33.70;47.30;;;;;;5006965;28;20682;-76
2022/09/06 12:43:04;;;;;;;0.80;0.80;;;33.50;48.30;;;;;;5014320;28;20180;-76
2022/09/06 12:45:30;;;;;;;0.70;0.70;;;33.20;47.50;;;;;;5011121;28;20743;-76
2022/09/06 12:48:10;;;;;;;0.60;0.60;;;32.90;47.40;;;;;;5014138;28;20271;-76
2022/09/06 12:50:37;;;;;;;0.93;0.80;;;32.80;48.20;;;;;;5011700;28;20189;-76
2022/09/06 12:53:17;;;;;;;1.00;1.00;;;32.60;49.10;;;;;;5010893;28;20184;-77
2022/09/06 12:55:43;;;;;;;0.80;0.80;;;32.60;47.90;;;;;;5010229;28;20198;-76
2022/09/06 12:58:11;;;;;;;0.77;0.77;;;32.40;48.50;;;;;;5031632;28;20195;-76
2022/09/06 13:00:48;;;;;;;0.90;0.90;;;32.40;48.30;;;;;;5054857;28;20665;-77
2022/09/06 13:03:39;;;;;;;1.27;1.10;;;32.30;49.60;;;;;;5057897;28;20186;-76
2022/09/06 13:06:06;;;;;;;0.90;0.90;;;32.60;48.80;;;;;;5056870;28;21016;-76
2022/09/06 13:08:34;;;;;;;2.92;2.83;;;32.80;49.60;;;;;;5057855;28;20648;-76
2022/09/06 13:11:02;;;;;;;3.25;3.15;;;33.00;49.60;;;;;;5052549;28;20192;-76
2022/09/06 13:13:28;;;;;;;2.50;2.40;;;33.00;49.20;;;;;;5052331;28;20183;-76